Time;durP1;ratioP1;P1;durP2;ratioP2;P2;SDS_P1;SDS_P2;PMS_P1;PMS_P2;Temp;Humidity;BMP_temperature;BMP_pressure;BME280_temperature;BME280_humidity;BME280_pressure;Samples;Min_cycle;Max_cycle;Signal;HPM_P1;HPM_P2
2023/10/05 00:01:55;;;;;;;;;;;;;;;;;;5152927;27;19915;-70
2023/10/05 00:04:24;;;;;;;;;;;;;;;;;;5134657;27;19908;-71
2023/10/05 00:06:53;;;;;;;;;;;;;;;;;;5152813;27;20393;-71
2023/10/05 00:09:20;;;;;;;;;;;;;;;;;;5152358;27;19923;-71
2023/10/05 00:11:46;;;;;;;;;;;;;;;;;;5152694;27;20436;-71
2023/10/05 00:14:12;;;;;;;;;;;;;;;;;;5152623;27;20025;-71
2023/10/05 00:16:38;;;;;;;;;;;;;;;;;;5152244;27;20374;-71
2023/10/05 00:19:14;;;;;;;;;;;;;;;;;;5152608;27;19907;-71
2023/10/05 00:21:46;;;;;;;;;;;;;;;;;;5152608;27;19918;-71
2023/10/05 00:24:12;;;;;;;;;;;;;;;;;;5152019;27;20439;-71
2023/10/05 00:26:39;;;;;;;;;;;;;;;;;;5152607;27;19998;-71
2023/10/05 00:31:33;;;;;;;;;;;;;;;;;;5151975;27;19907;-71
2023/10/05 00:33:58;;;;;;;;;;;;;;;;;;5152375;27;19937;-71
2023/10/05 00:36:25;;;;;;;;;;;;;;;;;;5152304;27;19952;-71
2023/10/05 00:38:51;;;;;;;;;;;;;;;;;;5151697;27;20283;-71
2023/10/05 00:41:17;;;;;;;;;;;;;;;;;;5152152;27;19907;-71
2023/10/05 00:43:46;;;;;;;;;;;;;;;;;;5152600;27;20262;-71
2023/10/05 00:46:37;;;;;;;;;;;;;;;;;;5112592;27;20256;-70
2023/10/05 00:49:12;;;;;;;;;;;;;;;;;;5112303;28;19916;-70
2023/10/05 00:52:04;;;;;;;;;;;;;;;;;;5091148;27;19922;-70
2023/10/05 00:54:31;;;;;;;;;;;;;;;;;;5091432;28;20376;-70
2023/10/05 00:56:57;;;;;;;;;;;;;;;;;;5091282;28;19908;-70
2023/10/05 00:59:34;;;;;;;;;;;;;;;;;;5173559;27;20014;-71
2023/10/05 01:04:34;;;;;;;;;;;;;;;;;;5173730;27;19907;-71
2023/10/05 01:07:17;;;;;;;;;;;;;;;;;;5173329;27;20415;-71
2023/10/05 01:14:52;;;;;;;;;;;;;;;;;;5173536;27;20286;-71
2023/10/05 01:17:21;;;;;;;;;;;;;;;;;;5173805;27;19953;-71
2023/10/05 01:19:51;;;;;;;;;;;;;;;;;;5172953;27;19907;-71
2023/10/05 01:22:21;;;;;;;;;;;;;;;;;;5173716;27;20318;-71
2023/10/05 01:24:48;;;;;;;;;;;;;;;;;;5173303;27;19914;-71
2023/10/05 01:27:14;;;;;;;;;;;;;;;;;;5173014;27;19963;-71
2023/10/05 01:29:40;;;;;;;;;;;;;;;;;;5173236;27;19998;-71
2023/10/05 01:33:17;;;;;;;;;;;;;;;;;;5091559;27;19917;-70
2023/10/05 01:35:46;;;;;;;;;;;;;;;;;;5089849;28;20347;-70
2023/10/05 01:38:12;;;;;;;;;;;;;;;;;;5091543;28;20353;-70
2023/10/05 01:40:38;;;;;;;;;;;;;;;;;;5089679;28;20016;-70
2023/10/05 01:43:04;;;;;;;;;;;;;;;;;;5091422;28;19912;-70
2023/10/05 01:48:12;;;;;;;;;;;;;;;;;;5091378;28;19938;-70
2023/10/05 01:50:39;;;;;;;;;;;;;;;;;;5090127;28;19919;-70
2023/10/05 01:53:33;;;;;;;;;;;;;;;;;;5153199;27;20007;-71
2023/10/05 01:56:00;;;;;;;;;;;;;;;;;;5152463;27;20366;-70
2023/10/05 02:02:04;;;;;;;;;;;;;;;;;;5091635;28;19923;-72
2023/10/05 02:06:21;;;;;;;;;;;;;;;;;;5071316;28;20285;-71
2023/10/05 02:08:47;;;;;;;;;;;;;;;;;;5071093;28;20015;-71
2023/10/05 02:11:13;;;;;;;;;;;;;;;;;;5071083;28;20265;-71
2023/10/05 02:13:40;;;;;;;;;;;;;;;;;;5069872;28;20284;-71
2023/10/05 02:16:07;;;;;;;;;;;;;;;;;;5070855;28;20284;-71
2023/10/05 02:18:34;;;;;;;;;;;;;;;;;;5071533;28;19948;-71
2023/10/05 02:23:34;;;;;;;;;;;;;;;;;;5070454;28;19917;-71
2023/10/05 02:26:10;;;;;;;;;;;;;;;;;;5071003;28;20015;-71
2023/10/05 02:28:55;;;;;;;;;;;;;;;;;;5111823;27;19916;-70
2023/10/05 02:31:21;;;;;;;;;;;;;;;;;;5111344;28;19944;-70
2023/10/05 02:33:47;;;;;;;;;;;;;;;;;;5111796;28;20326;-70
2023/10/05 02:47:12;;;;;;;;;;;;;;;;;;5090280;28;19912;-70
2023/10/05 02:49:43;;;;;;;;;;;;;;;;;;5091682;28;19935;-70
2023/10/05 02:52:13;;;;;;;;;;;;;;;;;;5090788;28;19908;-70
2023/10/05 02:54:39;;;;;;;;;;;;;;;;;;5091171;28;19909;-72
2023/10/05 02:57:07;;;;;;;;;;;;;;;;;;5091145;28;20373;-72
2023/10/05 02:59:34;;;;;;;;;;;;;;;;;;5090809;28;19915;-71
2023/10/05 03:02:06;;;;;;;;;;;;;;;;;;5089751;28;20367;-71
2023/10/05 03:04:44;;;;;;;;;;;;;;;;;;5091371;28;19909;-70
2023/10/05 03:07:14;;;;;;;;;;;;;;;;;;5090507;28;20352;-70
2023/10/05 03:09:42;;;;;;;;;;;;;;;;;;5090973;28;20436;-72
2023/10/05 03:12:08;;;;;;;;;;;;;;;;;;5089232;28;20288;-72
2023/10/05 03:14:34;;;;;;;;;;;;;;;;;;5090849;28;20004;-72
2023/10/05 03:17:03;;;;;;;;;;;;;;;;;;5091173;28;19914;-71
2023/10/05 03:19:29;;;;;;;;;;;;;;;;;;5090370;28;19916;-72
2023/10/05 03:22:04;;;;;;;;;;;;;;;;;;5090916;28;19909;-71
2023/10/05 03:24:30;;;;;;;;;;;;;;;;;;5090912;28;19909;-71
2023/10/05 03:28:49;;;;;;;;;;;;;;;;;;5112630;27;19916;-72
2023/10/05 03:31:21;;;;;;;;;;;;;;;;;;5111798;28;19918;-71
2023/10/05 03:36:06;;;;;;;;;;;;;;;;;;5111876;27;19922;-71
2023/10/05 03:40:37;;;;;;;;;;;;;;;;;;5111837;27;19916;-71
2023/10/05 03:43:05;;;;;;;;;;;;;;;;;;5111985;28;20011;-71
2023/10/05 03:45:31;;;;;;;;;;;;;;;;;;5111674;28;19912;-71
2023/10/05 03:47:57;;;;;;;;;;;;;;;;;;5111293;28;20375;-71
2023/10/05 03:50:23;;;;;;;;;;;;;;;;;;5111575;28;19908;-71
2023/10/05 03:52:49;;;;;;;;;;;;;;;;;;5111847;28;19908;-71
2023/10/05 03:55:18;;;;;;;;;;;;;;;;;;5111113;28;19915;-71
2023/10/05 03:57:45;;;;;;;;;;;;;;;;;;5111418;28;19919;-71
2023/10/05 04:02:56;;;;;;;;;;;;;;;;;;5110995;28;19958;-71
2023/10/05 04:05:23;;;;;;;;;;;;;;;;;;5111296;28;19915;-71
2023/10/05 04:07:51;;;;;;;;;;;;;;;;;;5111263;28;19995;-71
2023/10/05 04:10:27;;;;;;;;;;;;;;;;;;5110801;28;19919;-71
2023/10/05 04:12:54;;;;;;;;;;;;;;;;;;5111044;28;19908;-70
2023/10/05 04:15:20;;;;;;;;;;;;;;;;;;5109489;28;19908;-71
2023/10/05 04:19:41;;;;;;;;;;;;;;;;;;5091724;27;20281;-70
2023/10/05 04:22:07;;;;;;;;;;;;;;;;;;5091425;28;19912;-70
2023/10/05 04:25:23;;;;;;;;;;;;;;;;;;5110880;27;20786;-70
2023/10/05 04:27:49;;;;;;;;;;;;;;;;;;5111759;28;19912;-70
2023/10/05 04:35:11;;;;;;;;;;;;;;;;;;5112628;27;19916;-70
2023/10/05 04:39:36;;;;;;;134.35;123.15;;;;;;;;;;5049864;28;20860;-70
2023/10/05 04:42:11;;;;;;;;;;;;;;;;;;5051198;28;20140;-70
2023/10/05 04:44:38;;;;;;;;;;;;;;;;;;5050728;28;20042;-70
2023/10/05 04:47:04;;;;;;;;;;;;;;;;;;5051633;28;19947;-70
2023/10/05 04:49:30;;;;;;;;;;;;;;;;;;5051117;28;19905;-70
2023/10/05 04:54:26;;;;;;;;;;;;;;;;;;5112010;27;20116;-70
2023/10/05 04:57:35;;;;;;;;;;;;;;;;;;5091278;27;20837;-70
2023/10/05 05:00:48;;;;;;;;;;;;;;;;;;5091351;28;19995;-70
2023/10/05 05:05:53;;;;;;;;;;;;;;;;;;5090994;28;19913;-70
2023/10/05 05:08:20;;;;;;;;;;;;;;;;;;5091237;28;19914;-71
2023/10/05 05:10:45;;;;;;;;;;;;;;;;;;5091333;28;19908;-72
2023/10/05 05:13:12;;;;;;;;;;;;;;;;;;5090340;28;19905;-70
2023/10/05 05:15:38;;;;;;;;;;;;;;;;;;5089344;28;20132;-69
2023/10/05 05:18:04;;;;;;;;;;;;;;;;;;5089967;28;19911;-69
2023/10/05 05:20:31;;;;;;;;;;;;;;;;;;5090045;28;19954;-69
2023/10/05 05:22:56;;;;;;;;;;;;;;;;;;5082790;28;20010;-69
2023/10/05 05:25:22;;;;;;;;;;;;;;;;;;5080530;28;20341;-69
2023/10/05 05:27:48;;;;;;;;;;;;;;;;;;5086529;28;19999;-69
2023/10/05 05:30:26;;;;;;;;;;;;;;;;;;5083286;28;19931;-68
2023/10/05 05:32:56;;;;;;;;;;;;;;;;;;5087663;28;19904;-71
2023/10/05 05:35:22;;;;;;;;;;;;;;;;;;5089718;28;19916;-71
2023/10/05 05:37:49;;;;;;;;;;;;;;;;;;5088059;28;19916;-73
2023/10/05 05:40:15;;;;;;;;;;;;;;;;;;5087942;28;19908;-70
2023/10/05 05:42:41;;;;;;;;;;;;;;;;;;5084580;28;19908;-71
2023/10/05 05:45:15;;;;;;;;;;;;;;;;;;5086137;28;19962;-69
2023/10/05 05:47:41;;;;;;;;;;;;;;;;;;5087284;28;19904;-73
2023/10/05 05:50:08;;;;;;;;;;;;;;;;;;5086031;28;19912;-70
2023/10/05 05:52:35;;;;;;;;;;;;;;;;;;5076828;28;19964;-71
2023/10/05 05:55:09;;;;;;;;;;;;;;;;;;5075040;28;19967;-70
2023/10/05 05:57:35;;;;;;;;;;;;;;;;;;5106450;28;20319;-72
2023/10/05 06:00:10;;;;;;;;;;;;;;;;;;5116231;28;19914;-72
2023/10/05 06:02:39;;;;;;;;;;;;;;;;;;5117105;28;19994;-72
2023/10/05 06:05:08;;;;;;;;;;;;;;;;;;5106676;28;19998;-72
2023/10/05 06:08:22;;;;;;;;;;;;;;;;;;5067371;28;19923;-72
2023/10/05 06:10:51;;;;;;;;;;;;;;;;;;5067614;28;19959;-71
2023/10/05 06:13:19;;;;;;;;;;;;;;;;;;5066039;28;20339;-71
2023/10/05 06:15:45;;;;;;;;;;;;;;;;;;5064792;28;19952;-71
2023/10/05 06:18:12;;;;;;;;;;;;;;;;;;5065894;28;19948;-71
2023/10/05 06:20:38;;;;;;;;;;;;;;;;;;5063332;28;20323;-72
2023/10/05 06:23:05;;;;;;;;;;;;;;;;;;5065479;28;19908;-71
2023/10/05 06:25:31;;;;;;;;;;;;;;;;;;5066748;28;19917;-72
2023/10/05 06:27:59;;;;;;;;;;;;;;;;;;5065998;28;19924;-73
2023/10/05 06:30:25;;;;;;;;;;;;;;;;;;5066054;28;19919;-72
2023/10/05 06:32:53;;;;;;;;;;;;;;;;;;5065748;28;19913;-72
2023/10/05 06:35:19;;;;;;;;;;;;;;;;;;5066727;28;19925;-77
2023/10/05 06:37:45;;;;;;;;;;;;;;;;;;5064372;28;19909;-76
2023/10/05 06:40:21;;;;;;;;;;;;;;;;;;5067086;28;20363;-76
2023/10/05 06:42:49;;;;;;;;;;;;;;;;;;5064272;28;20007;-72
2023/10/05 06:45:15;;;;;;;;;;;;;;;;;;5067579;28;20464;-73
2023/10/05 06:47:41;;;;;;;;;;;;;;;;;;5066749;28;20004;-73
2023/10/05 06:50:10;;;;;;;;;;;;;;;;;;5056712;28;20552;-72
2023/10/05 06:52:39;;;;;;;;;;;;;;;;;;5067954;28;19944;-71
2023/10/05 06:55:07;;;;;;;;;;;;;;;;;;5068066;28;20335;-71
2023/10/05 06:57:33;;;;;;;;;;;;;;;;;;5062400;28;19935;-73
2023/10/05 06:59:59;;;;;;;;;;;;;;;;;;5060390;28;19916;-73
2023/10/05 07:02:25;;;;;;;;;;;;;;;;;;5064135;28;19913;-74
2023/10/05 07:04:51;;;;;;;;;;;;;;;;;;5061525;28;19936;-74
2023/10/05 07:07:17;;;;;;;;;;;;;;;;;;5065468;28;20019;-73
2023/10/05 07:09:43;;;;;;;;;;;;;;;;;;5083806;28;19958;-74
2023/10/05 07:12:09;;;;;;;;;;;;;;;;;;5083886;28;20013;-72
2023/10/05 07:14:36;;;;;;;;;;;;;;;;;;5085308;28;19909;-75
2023/10/05 07:17:02;;;;;;;;;;;;;;;;;;5064668;28;19916;-75
2023/10/05 07:19:28;;;;;;;;;;;;;;;;;;5069329;28;19920;-72
2023/10/05 07:23:37;;;;;;;;;;;;;;;;;;5084846;28;19916;-72
2023/10/05 07:26:03;;;;;;;;;;;;;;;;;;5054897;28;19963;-77
2023/10/05 07:28:30;;;;;;;;;;;;;;;;;;5062809;28;20448;-71
2023/10/05 07:30:56;;;;;;;;;;;;;;;;;;5062638;28;19928;-70
2023/10/05 07:33:22;;;;;;;;;;;;;;;;;;5082849;28;20449;-70
2023/10/05 07:35:48;;;;;;;;;;;;;;;;;;5071514;28;19913;-70
2023/10/05 07:38:14;;;;;;;;;;;;;;;;;;5080159;28;19939;-69
2023/10/05 07:40:42;;;;;;;;;;;;;;;;;;5077712;28;19934;-69
2023/10/05 07:43:08;;;;;;;;;;;;;;;;;;5080867;28;19920;-69
2023/10/05 07:45:34;;;;;;;;;;;;;;;;;;5065662;28;19909;-72
2023/10/05 07:48:00;;;;;;;;;;;;;;;;;;5066575;28;19945;-69
2023/10/05 07:50:26;;;;;;;;;;;;;;;;;;5066318;28;19923;-69
2023/10/05 07:52:52;;;;;;;;;;;;;;;;;;5071168;28;19917;-71
2023/10/05 07:55:18;;;;;;;;;;;;;;;;;;5068912;28;19920;-70
2023/10/05 07:57:44;;;;;;;;;;;;;;;;;;5075073;28;20476;-71
2023/10/05 08:00:13;;;;;;;;;;;;;;;;;;5063437;28;19923;-71
2023/10/05 08:02:39;;;;;;;;;;;;;;;;;;5083102;28;19988;-70
2023/10/05 08:05:17;;;;;;;;;;;;;;;;;;5060799;28;19912;-71
2023/10/05 08:07:47;;;;;;;;;;;;;;;;;;5059237;28;19913;-73
2023/10/05 08:10:18;;;;;;;;;;;;;;;;;;5074596;28;20381;-73
2023/10/05 08:12:48;;;;;;;;;;;;;;;;;;5077245;28;20015;-72
2023/10/05 08:15:17;;;;;;;;;;;;;;;;;;5058080;28;19966;-73
2023/10/05 08:17:46;;;;;;;;;;;;;;;;;;5077515;28;20373;-74
2023/10/05 08:20:12;;;;;;;;;;;;;;;;;;5051585;28;20067;-74
2023/10/05 08:22:39;;;;;;;;;;;;;;;;;;5094797;28;20470;-76
2023/10/05 08:25:11;;;;;;;;;;;;;;;;;;5083276;28;19913;-74
2023/10/05 08:27:39;;;;;;;;;;;;;;;;;;5083176;28;19909;-74
2023/10/05 08:30:08;;;;;;;;;;;;;;;;;;5086236;28;19968;-74
2023/10/05 08:32:36;;;;;;;;;;;;;;;;;;5080879;28;20330;-74
2023/10/05 08:35:07;;;;;;;;;;;;;;;;;;5077700;28;19912;-74
2023/10/05 08:37:34;;;;;;;;;;;;;;;;;;5066046;28;19908;-73
2023/10/05 08:40:00;;;;;;;;;;;;;;;;;;5084480;28;19912;-72
2023/10/05 08:42:27;;;;;;;;;;;;;;;;;;5088310;28;19984;-72
2023/10/05 08:44:55;;;;;;;;;;;;;;;;;;5057466;28;19993;-72
2023/10/05 08:47:22;;;;;;;;;;;;;;;;;;5074645;28;20407;-72
2023/10/05 08:49:51;;;;;;;;;;;;;;;;;;5074915;28;19908;-72
2023/10/05 08:52:20;;;;;;;;;;;;;;;;;;5057354;28;19913;-72
2023/10/05 08:54:48;;;;;;;;;;;;;;;;;;5069625;28;19999;-73
2023/10/05 08:57:14;;;;;;;;;;;;;;;;;;5070469;28;19999;-73
2023/10/05 08:59:52;;;;;;;;;;;;;;;;;;5055251;28;19908;-72
2023/10/05 09:02:21;;;;;;;;;;;;;;;;;;5054823;28;19924;-72
2023/10/05 09:04:49;;;;;;;;;;;;;;;;;;5056028;28;19909;-72
2023/10/05 09:07:16;;;;;;;;;;;;;;;;;;5056925;28;19909;-72
2023/10/05 09:09:54;;;;;;;;;;;;;;;;;;5075001;28;19970;-72
2023/10/05 09:12:34;;;;;;;;;;;;;;;;;;5073543;28;20434;-71
2023/10/05 09:15:02;;;;;;;;;;;;;;;;;;5073470;28;19908;-69
2023/10/05 09:17:28;;;;;;;;;;;;;;;;;;5065349;28;19912;-69
2023/10/05 09:19:55;;;;;;;;;;;;;;;;;;5092038;28;19962;-68
2023/10/05 09:22:23;;;;;;;;;;;;;;;;;;5053691;28;19925;-70
2023/10/05 09:24:49;;;;;;;;;;;;;;;;;;5070406;28;19912;-70
2023/10/05 09:27:16;;;;;;;;;;;;;;;;;;5074268;28;19912;-71
2023/10/05 09:29:43;;;;;;;;;;;;;;;;;;5074887;28;19966;-69
2023/10/05 09:32:11;;;;;;;;;;;;;;;;;;5051965;28;19908;-71
2023/10/05 09:34:38;;;;;;;;;;;;;;;;;;5070885;28;19978;-71
2023/10/05 09:37:07;;;;;;;;;;;;;;;;;;5068985;28;19927;-71
2023/10/05 09:39:33;;;;;;;;;;;;;;;;;;5067692;28;19913;-70
2023/10/05 09:42:01;;;;;;;;;;;;;;;;;;5085169;28;19926;-71
2023/10/05 09:44:28;;;;;;;;;;;;;;;;;;5074248;28;20014;-71
2023/10/05 09:46:54;;;;;;;;;;;;;;;;;;5077530;28;19965;-71
2023/10/05 09:49:21;;;;;;;;;;;;;;;;;;5048668;28;19916;-71
2023/10/05 09:51:48;;;;;;;;;;;;;;;;;;5079944;28;19912;-71
2023/10/05 09:54:14;;;;;;;;;;;;;;;;;;5074123;28;19971;-70
2023/10/05 09:56:41;;;;;;;;;;;;;;;;;;5076117;28;19920;-70
2023/10/05 09:59:15;;;;;;;;;;;;;;;;;;5074094;28;19920;-70
2023/10/05 10:01:42;;;;;;;;;;;;;;;;;;5073675;28;19923;-70
2023/10/05 10:04:08;;;;;;;;;;;;;;;;;;5076053;28;19917;-69
2023/10/05 10:06:35;;;;;;;;;;;;;;;;;;5069809;28;20380;-71
2023/10/05 10:09:10;;;;;;;;;;;;;;;;;;5067514;28;19944;-71
2023/10/05 10:11:36;;;;;;;;;;;;;;;;;;5075941;28;19916;-71
2023/10/05 10:14:06;;;;;;;;;;;;;;;;;;5066356;28;19999;-72
2023/10/05 10:16:32;;;;;;;;;;;;;;;;;;5090855;28;19915;-71
2023/10/05 10:19:04;;;;;;;;;;;;;;;;;;5085301;28;19916;-71
2023/10/05 10:21:30;;;;;;;;;;;;;;;;;;5087999;28;19919;-70
2023/10/05 10:23:56;;;;;;;;;;;;;;;;;;5067504;28;19963;-70
2023/10/05 10:26:24;;;;;;;;;;;;;;;;;;5091450;28;20283;-70
2023/10/05 10:31:22;;;;;;;;;;;;;;;;;;5073705;28;19912;-69
2023/10/05 10:33:51;;;;;;;;;;;;;;;;;;5074750;28;19974;-71
2023/10/05 10:36:25;;;;;;;;;;;;;;;;;;5048952;28;19951;-73
2023/10/05 10:38:51;;;;;;;;;;;;;;;;;;5070080;28;19919;-70
2023/10/05 10:41:17;;;;;;;;;;;;;;;;;;5074432;28;19957;-70
2023/10/05 10:43:52;;;;;;;;;;;;;;;;;;5071595;28;19909;-71
2023/10/05 10:46:20;;;;;;;;;;;;;;;;;;5047034;28;19925;-71
2023/10/05 10:48:47;;;;;;;;;;;;;;;;;;5058421;28;20196;-71
2023/10/05 10:51:13;;;;;;;;;;;;;;;;;;5052289;28;20444;-71
2023/10/05 10:53:39;;;;;;;;;;;;;;;;;;5070941;28;19978;-71
2023/10/05 10:56:17;;;;;;;;;;;;;;;;;;5069860;28;19915;-70
2023/10/05 10:58:44;;;;;;;;;;;;;;;;;;5072155;28;19908;-70
2023/10/05 11:01:28;;;;;;;;;;;;;;;;;;5072891;28;19919;-72
2023/10/05 11:03:55;;;;;;;;;;;;;;;;;;5090566;28;20237;-69
2023/10/05 11:06:26;;;;;;;;;;;;;;;;;;5086322;28;19952;-70
2023/10/05 11:08:51;;;;;;;;;;;;;;;;;;5072453;28;19908;-70
2023/10/05 11:11:19;;;;;;;;;;;;;;;;;;5072842;28;19915;-68
2023/10/05 11:13:49;;;;;;;;;;;;;;;;;;5071164;28;19908;-69
2023/10/05 11:16:19;;;;;;;;;;;;;;;;;;5076579;28;19912;-70
2023/10/05 11:18:45;;;;;;;;;;;;;;;;;;5071861;28;19959;-69
2023/10/05 11:21:24;;;;;;;;;;;;;;;;;;5090785;28;20378;-70
2023/10/05 11:23:56;;;;;;;;;;;;;;;;;;5090278;28;19953;-69
2023/10/05 11:29:17;;;;;;;;;;;;;;;;;;5054470;28;19944;-71
2023/10/05 11:31:44;;;;;;;;;;;;;;;;;;5069936;28;19999;-70
2023/10/05 11:34:11;;;;;;;;;;;;;;;;;;5072156;28;19913;-70
2023/10/05 11:36:39;;;;;;;;;;;;;;;;;;5054571;28;19912;-70
2023/10/05 11:39:06;;;;;;;;;;;;;;;;;;5079202;28;19958;-71
2023/10/05 11:41:33;;;;;;;;;;;;;;;;;;5080525;28;19919;-70
2023/10/05 11:43:59;;;;;;;;;;;;;;;;;;5084096;28;19920;-67
2023/10/05 11:46:26;;;;;;;;;;;;;;;;;;5089780;28;19965;-68
2023/10/05 11:48:55;;;;;;;;;;;;;;;;;;5073236;28;20375;-69
2023/10/05 11:51:21;;;;;;;;;;;;;;;;;;5083095;28;19909;-70
2023/10/05 11:53:47;;;;;;;;;;;;;;;;;;5088251;28;19923;-69
2023/10/05 11:56:17;;;;;;;;;;;;;;;;;;5078514;28;19908;-67
2023/10/05 11:58:43;;;;;;;;;;;;;;;;;;5052449;28;19916;-68
2023/10/05 12:01:10;;;;;;;;;;;;;;;;;;5071204;28;20368;-68
2023/10/05 12:03:43;;;;;;;;;;;;;;;;;;5070885;28;19924;-68
2023/10/05 12:06:11;;;;;;;;;;;;;;;;;;5070841;28;20391;-69
2023/10/05 12:08:37;;;;;;;;;;;;;;;;;;5085365;28;20368;-70
2023/10/05 12:11:03;;;;;;;;;;;;;;;;;;5077518;28;19913;-69
2023/10/05 12:13:29;;;;;;;;;;;;;;;;;;5074420;28;19909;-69
2023/10/05 12:15:55;;;;;;;;;;;;;;;;;;5088723;28;20376;-68
2023/10/05 12:18:22;;;;;;;;;;;;;;;;;;5093320;28;20068;-68
2023/10/05 12:20:48;;;;;;;;;;;;;;;;;;5088419;28;19912;-69
2023/10/05 12:23:17;;;;;;;;;;;;;;;;;;5093887;28;19938;-68
2023/10/05 12:25:43;;;;;;;;;;;;;;;;;;5089787;28;19913;-68
2023/10/05 12:28:11;;;;;;;;;;;;;;;;;;5065450;28;20010;-70
2023/10/05 12:30:37;;;;;;;;;;;;;;;;;;5094148;28;19918;-69
2023/10/05 12:33:03;;;;;;;;;;;;;;;;;;5085090;28;19908;-69
2023/10/05 12:35:30;;;;;;;;;;;;;;;;;;5075741;28;19908;-68
2023/10/05 12:37:58;;;;;;;;;;;;;;;;;;5075992;28;19908;-68
2023/10/05 12:40:33;;;;;;;;;;;;;;;;;;5077392;28;19939;-68
2023/10/05 12:42:59;;;;;;;;;;;;;;;;;;5074961;28;19938;-69
2023/10/05 12:45:25;;;;;;;;;;;;;;;;;;5073529;28;19969;-69
2023/10/05 12:47:54;;;;;;;;;;;;;;;;;;5081103;28;19912;-69
2023/10/05 12:50:20;;;;;;;;;;;;;;;;;;5085709;28;19964;-69
2023/10/05 12:52:50;;;;;;;;;;;;;;;;;;5073966;28;20014;-71
2023/10/05 12:55:18;;;;;;;;;;;;;;;;;;5060798;28;19963;-69
2023/10/05 12:57:44;;;;;;;;;;;;;;;;;;5054276;28;19913;-68
2023/10/05 13:00:19;;;;;;;;;;;;;;;;;;5066466;28;20415;-69
2023/10/05 13:02:46;;;;;;;;;;;;;;;;;;5072733;28;20346;-70
2023/10/05 13:05:17;;;;;;;;;;;;;;;;;;5074250;28;19973;-72
2023/10/05 13:07:43;;;;;;;;;;;;;;;;;;5072534;28;19984;-73
2023/10/05 13:10:21;;;;;;;;;;;;;;;;;;5073458;28;20415;-73
2023/10/05 13:12:48;;;;;;;;;;;;;;;;;;5073802;28;19912;-73
2023/10/05 13:15:15;;;;;;;;;;;;;;;;;;5072965;28;19935;-74
2023/10/05 13:17:41;;;;;;;;;;;;;;;;;;5073027;28;19908;-73
2023/10/05 13:20:14;;;;;;;;;;;;;;;;;;5075204;28;19999;-73
2023/10/05 13:22:44;;;;;;;;;;;;;;;;;;5086106;28;19927;-73
2023/10/05 13:25:10;;;;;;;;;;;;;;;;;;5055131;28;19963;-73
2023/10/05 13:27:36;;;;;;;;;;;;;;;;;;5054455;28;20112;-73
2023/10/05 13:30:03;;;;;;;;;;;;;;;;;;5054334;28;19915;-73
2023/10/05 13:32:31;;;;;;;;;;;;;;;;;;5053935;28;20372;-73
2023/10/05 13:34:57;;;;;;;;;;;;;;;;;;5053723;28;20336;-73
2023/10/05 13:37:23;;;;;;;;;;;;;;;;;;5053283;28;19912;-73
2023/10/05 13:39:53;;;;;;;;;;;;;;;;;;5085275;28;19951;-73
2023/10/05 13:42:26;;;;;;;;;;;;;;;;;;5053583;28;19913;-73
2023/10/05 13:44:53;;;;;;;;;;;;;;;;;;5053618;28;19908;-73
2023/10/05 13:47:19;;;;;;;;;;;;;;;;;;5052268;28;19976;-74
2023/10/05 13:49:51;;;;;;;;;;;;;;;;;;5052942;28;19909;-73
2023/10/05 13:52:20;;;;;;;;;;;;;;;;;;5052851;28;19928;-74
2023/10/05 13:54:46;;;;;;;;;;;;;;;;;;5052858;28;19920;-73
2023/10/05 13:57:14;;;;;;;;;;;;;;;;;;5052861;28;19909;-73
2023/10/05 13:59:40;;;;;;;;;;;;;;;;;;5084657;28;19913;-73
2023/10/05 14:02:07;;;;;;;;;;;;;;;;;;5053660;28;19927;-73
2023/10/05 14:04:37;;;;;;;;;;;;;;;;;;5054745;28;19936;-74
2023/10/05 14:07:04;;;;;;;;;;;;;;;;;;5054448;28;19963;-74
2023/10/05 14:09:33;;;;;;;;;;;;;;;;;;5054867;28;20003;-74
2023/10/05 14:11:59;;;;;;;;;;;;;;;;;;5054688;28;19909;-73
2023/10/05 14:14:25;;;;;;;;;;;;;;;;;;5054298;28;19909;-73
2023/10/05 14:16:54;;;;;;;;;;;;;;;;;;5054631;28;20280;-74
2023/10/05 14:19:22;;;;;;;;;;;;;;;;;;5054552;28;20280;-73
2023/10/05 14:21:48;;;;;;;;;;;;;;;;;;5058851;28;20397;-73
2023/10/05 14:24:17;;;;;;;;;;;;;;;;;;5074750;28;19931;-74
2023/10/05 14:26:47;;;;;;;;;;;;;;;;;;5074530;28;20004;-73
2023/10/05 14:29:13;;;;;;;;;;;;;;;;;;5073974;28;19991;-73
2023/10/05 14:31:41;;;;;;;;;;;;;;;;;;5073789;28;19956;-73
2023/10/05 14:34:09;;;;;;;;;;;;;;;;;;5089850;28;19908;-73
2023/10/05 14:36:35;;;;;;;;;;;;;;;;;;5074247;28;19915;-74
2023/10/05 14:39:18;;;;;;;;;;;;;;;;;;5074211;28;19909;-73
2023/10/05 14:41:44;;;;;;;;;;;;;;;;;;5073733;28;19916;-73
2023/10/05 14:44:10;;;;;;;;;;;;;;;;;;5074132;28;19916;-74
2023/10/05 14:46:36;;;;;;;;;;;;;;;;;;5074053;28;19920;-72
2023/10/05 14:49:03;;;;;;;;;;;;;;;;;;5073614;28;20292;-73
2023/10/05 14:51:29;;;;;;;;;;;;;;;;;;5073962;28;19912;-74
2023/10/05 14:53:55;;;;;;;;;;;;;;;;;;5089951;28;20418;-74
2023/10/05 14:56:22;;;;;;;;;;;;;;;;;;5073520;28;19970;-74
2023/10/05 14:58:48;;;;;;;;;;;;;;;;;;5073844;28;19908;-73
2023/10/05 15:01:14;;;;;;;;;;;;;;;;;;5073899;28;20003;-72
2023/10/05 15:03:41;;;;;;;;;;;;;;;;;;5073377;28;19924;-74
2023/10/05 15:06:07;;;;;;;;;;;;;;;;;;5073725;28;19919;-72
2023/10/05 15:08:33;;;;;;;;;;;;;;;;;;5073782;28;19995;-73
2023/10/05 15:11:05;;;;;;;;;;;;;;;;;;5073286;28;19909;-73
2023/10/05 15:13:31;;;;;;;;;;;;;;;;;;5073809;28;19915;-73
2023/10/05 15:15:57;;;;;;;;;;;;;;;;;;5073558;28;19912;-73
2023/10/05 15:18:24;;;;;;;;;;;;;;;;;;5088893;28;19913;-73
2023/10/05 15:20:50;;;;;;;;;;;;;;;;;;5073636;28;19908;-73
2023/10/05 15:23:16;;;;;;;;;;;;;;;;;;5073459;28;20354;-73
2023/10/05 15:25:41;;;;;;;;;;;;;;;;;;5073271;28;19909;-73
2023/10/05 15:28:11;;;;;;;;;;;;;;;;;;5073557;28;19940;-73
2023/10/05 15:30:38;;;;;;;;;;;;;;;;;;5073320;28;19981;-73
2023/10/05 15:33:04;;;;;;;;;;;;;;;;;;5073578;28;19951;-73
2023/10/05 15:35:30;;;;;;;;;;;;;;;;;;5073496;28;19952;-73
2023/10/05 15:37:56;;;;;;;;;;;;;;;;;;5073134;28;19912;-74
2023/10/05 15:40:22;;;;;;;;;;;;;;;;;;5073394;28;19912;-73
2023/10/05 15:42:48;;;;;;;;;;;;;;;;;;5088956;28;19917;-73
2023/10/05 15:45:16;;;;;;;;;;;;;;;;;;5076746;28;19915;-73
2023/10/05 15:47:43;;;;;;;;;;;;;;;;;;5077553;28;19909;-72
2023/10/05 15:50:11;;;;;;;;;;;;;;;;;;5077472;28;19908;-72
2023/10/05 15:52:38;;;;;;;;;;;;;;;;;;5076934;28;19919;-72
2023/10/05 15:55:07;;;;;;;;;;;;;;;;;;5077467;28;19958;-73
2023/10/05 15:57:33;;;;;;;;;;;;;;;;;;5077583;28;19908;-72
2023/10/05 15:59:59;;;;;;;;;;;;;;;;;;5076834;28;20402;-73
2023/10/05 16:02:25;;;;;;;;;;;;;;;;;;5077162;28;20472;-74
2023/10/05 16:04:51;;;;;;;;;;;;;;;;;;5077555;28;19908;-72
2023/10/05 16:07:17;;;;;;;;;;;;;;;;;;5076884;28;19916;-72
2023/10/05 16:09:43;;;;;;;;;;;;;;;;;;5077107;28;19909;-72
2023/10/05 16:12:09;;;;;;;;;;;;;;;;;;5092736;28;19909;-72
2023/10/05 16:14:35;;;;;;;;;;;;;;;;;;5092414;28;20021;-72
2023/10/05 16:17:01;;;;;;;;;;;;;;;;;;5076918;28;19909;-72
2023/10/05 16:19:27;;;;;;;;;;;;;;;;;;5076783;28;19973;-72
2023/10/05 16:21:53;;;;;;;;;;;;;;;;;;5091791;28;19963;-72
2023/10/05 16:24:19;;;;;;;;;;;;;;;;;;5076775;28;19908;-72
2023/10/05 16:26:45;;;;;;;;;;;;;;;;;;5076281;28;19909;-72
2023/10/05 16:29:12;;;;;;;;;;;;;;;;;;5092325;28;19916;-72
2023/10/05 16:31:39;;;;;;;;;;;;;;;;;;5076613;28;20323;-73
2023/10/05 16:34:05;;;;;;;;;;;;;;;;;;5076118;28;20306;-73
2023/10/05 16:36:31;;;;;;;;;;;;;;;;;;5076546;28;19908;-73
2023/10/05 16:38:57;;;;;;;;;;;;;;;;;;5076341;28;20056;-73
2023/10/05 16:41:23;;;;;;;;;;;;;;;;;;5076025;28;19912;-72
2023/10/05 16:43:49;;;;;;;;;;;;;;;;;;5076255;28;19917;-73
2023/10/05 16:46:15;;;;;;;;;;;;;;;;;;5076310;28;19959;-72
2023/10/05 16:48:41;;;;;;;;;;;;;;;;;;5075949;28;19942;-73
2023/10/05 16:51:07;;;;;;;;;;;;;;;;;;5076337;28;19912;-72
2023/10/05 16:53:33;;;;;;;;;;;;;;;;;;5076169;28;19939;-73
2023/10/05 16:55:59;;;;;;;;;;;;;;;;;;5075323;28;19908;-73
2023/10/05 16:58:25;;;;;;;;;;;;;;;;;;5076446;28;19916;-73
2023/10/05 17:00:51;;;;;;;;;;;;;;;;;;5076493;28;20254;-73
2023/10/05 17:03:17;;;;;;;;;;;;;;;;;;5075523;28;19921;-73
2023/10/05 17:05:43;;;;;;;;;;;;;;;;;;5075647;28;20347;-73
2023/10/05 17:08:09;;;;;;;;;;;;;;;;;;5075890;28;19944;-72
2023/10/05 17:10:35;;;;;;;;;;;;;;;;;;5075518;28;19962;-73
2023/10/05 17:13:01;;;;;;;;;;;;;;;;;;5075776;28;20365;-72
2023/10/05 17:15:27;;;;;;;;;;;;;;;;;;5075764;28;19916;-73
2023/10/05 17:17:53;;;;;;;;;;;;;;;;;;5075296;28;19909;-73
2023/10/05 17:20:19;;;;;;;;;;;;;;;;;;5075601;28;19954;-73
2023/10/05 17:22:45;;;;;;;;;;;;;;;;;;5090998;28;19924;-74
2023/10/05 17:25:11;;;;;;;;;;;;;;;;;;5075273;28;20010;-73
2023/10/05 17:27:37;;;;;;;;;;;;;;;;;;5075579;28;19912;-73
2023/10/05 17:30:03;;;;;;;;;;;;;;;;;;5075090;28;19908;-73
2023/10/05 17:32:30;;;;;;;;;;;;;;;;;;5090990;28;19909;-73
2023/10/05 17:34:56;;;;;;;;;;;;;;;;;;5075451;28;19983;-72
2023/10/05 17:37:27;;;;;;;;;;;;;;;;;;5070246;28;19931;-72
2023/10/05 17:39:53;;;;;;;;;;;;;;;;;;5075357;28;19908;-73
2023/10/05 17:42:19;;;;;;;;;;;;;;;;;;5075153;28;19916;-72
2023/10/05 17:44:45;;;;;;;;;;;;;;;;;;5074814;28;19909;-72
2023/10/05 17:47:11;;;;;;;;;;;;;;;;;;5075122;28;19914;-72
2023/10/05 17:49:39;;;;;;;;;;;;;;;;;;5075141;28;20379;-72
2023/10/05 17:52:06;;;;;;;;;;;;;;;;;;5074654;28;19908;-72
2023/10/05 17:54:32;;;;;;;;;;;;;;;;;;5075107;28;19973;-72